createdAt,value
2022-09-15T00:00:28.883Z,67.77
2022-09-15T00:02:56.586Z,67.97
2022-09-15T00:05:23.652Z,67.90
2022-09-15T00:07:50.726Z,68.04
2022-09-15T00:10:18.066Z,67.71
2022-09-15T00:12:45.041Z,67.55
2022-09-15T00:15:14.819Z,67.59
2022-09-15T00:17:43.064Z,68.09
2022-09-15T00:20:10.663Z,67.70
2022-09-15T00:22:37.771Z,67.67
2022-09-15T00:25:06.112Z,67.65
2022-09-15T00:27:33.850Z,67.51
2022-09-15T00:30:00.971Z,67.66
2022-09-15T00:32:28.071Z,67.49
2022-09-15T00:34:54.962Z,67.54
2022-09-15T00:37:21.860Z,67.82
2022-09-15T00:39:49.706Z,67.52
2022-09-15T00:42:18.106Z,67.70
2022-09-15T00:44:56.122Z,67.77
2022-09-15T00:47:26.081Z,67.52
2022-09-15T00:49:59.372Z,67.74
2022-09-15T00:52:32.657Z,67.76
2022-09-15T00:55:18.727Z,67.90
2022-09-15T00:58:07.530Z,68.43
2022-09-15T01:03:10.679Z,68.76
2022-09-15T01:05:50.000Z,69.12
2022-09-15T01:08:34.132Z,69.23
2022-09-15T01:11:01.247Z,69.92
2022-09-15T01:13:29.800Z,70.38
2022-09-15T01:16:03.301Z,70.54
2022-09-15T01:18:48.794Z,71.07
2022-09-15T01:21:46.038Z,71.07
2022-09-15T01:24:37.712Z,71.11
2022-09-15T01:27:41.656Z,71.07
2022-09-15T01:30:13.430Z,71.36
2022-09-15T01:33:04.566Z,71.49
2022-09-15T01:35:52.624Z,71.71
2022-09-15T01:39:01.088Z,71.39
2022-09-15T01:41:35.800Z,71.72
2022-09-15T01:44:12.689Z,71.89
2022-09-15T01:46:47.207Z,71.69
2022-09-15T01:49:24.168Z,71.57
2022-09-15T01:51:52.294Z,71.86
2022-09-15T01:54:30.893Z,71.94
2022-09-15T01:56:57.950Z,71.87
2022-09-15T01:59:24.914Z,71.71
2022-09-15T02:02:17.746Z,71.92
2022-09-15T02:04:53.567Z,71.75
2022-09-15T02:07:35.659Z,72.27
2022-09-15T02:10:11.595Z,72.33
2022-09-15T02:13:06.327Z,72.77
2022-09-15T02:15:37.542Z,72.70
2022-09-15T02:18:05.729Z,72.72
2022-09-15T02:20:41.369Z,73.04
2022-09-15T02:23:13.360Z,72.79
2022-09-15T02:25:51.921Z,73.04
2022-09-15T02:28:20.494Z,72.86
2022-09-15T02:30:47.532Z,73.29
2022-09-15T02:33:17.272Z,73.16
2022-09-15T02:35:44.324Z,73.60
2022-09-15T02:38:11.324Z,73.53
2022-09-15T02:40:40.474Z,73.10
2022-09-15T02:43:13.564Z,73.42
2022-09-15T02:45:40.604Z,72.67
2022-09-15T02:48:09.903Z,72.12
2022-09-15T02:50:37.473Z,71.75
2022-09-15T02:53:04.731Z,71.73
2022-09-15T02:55:31.688Z,71.45
2022-09-15T02:57:59.044Z,71.59
2022-09-15T03:00:26.994Z,71.34
2022-09-15T03:02:54.636Z,70.95
2022-09-15T03:05:29.267Z,71.28
2022-09-15T03:07:56.980Z,71.31
2022-09-15T03:10:24.935Z,70.99
2022-09-15T03:12:53.418Z,70.96
2022-09-15T03:15:24.747Z,70.66
2022-09-15T03:17:51.896Z,70.75
2022-09-15T03:20:21.334Z,70.68
2022-09-15T03:22:48.822Z,71.15
2022-09-15T03:25:16.742Z,70.78
2022-09-15T03:27:43.741Z,71.25
2022-09-15T03:30:11.394Z,71.07
2022-09-15T03:32:38.282Z,70.88
2022-09-15T03:35:06.155Z,71.18
2022-09-15T03:37:33.474Z,71.35
2022-09-15T03:40:00.441Z,71.29
2022-09-15T03:42:27.478Z,70.61
2022-09-15T03:44:54.719Z,70.90
2022-09-15T03:47:21.711Z,70.43
2022-09-15T03:49:48.614Z,70.25
2022-09-15T03:52:15.833Z,70.31
2022-09-15T03:54:42.882Z,70.44
2022-09-15T03:57:09.779Z,70.30
2022-09-15T03:59:36.941Z,70.21
2022-09-15T04:02:04.097Z,69.87
2022-09-15T04:04:31.296Z,69.32
2022-09-15T04:06:58.898Z,70.14
2022-09-15T04:09:25.898Z,69.23
2022-09-15T04:11:52.823Z,69.32
2022-09-15T04:14:19.856Z,69.63
2022-09-15T04:16:47.785Z,69.17
2022-09-15T04:19:14.777Z,69.09
2022-09-15T04:21:41.883Z,68.60
2022-09-15T04:24:08.740Z,68.25
2022-09-15T04:26:36.664Z,67.96
2022-09-15T04:29:05.211Z,67.38
2022-09-15T04:31:33.131Z,66.64
2022-09-15T04:34:00.273Z,66.98
2022-09-15T04:36:28.785Z,66.91
2022-09-15T04:38:56.643Z,66.73
2022-09-15T04:41:25.733Z,67.08
2022-09-15T04:43:52.781Z,67.04
2022-09-15T04:46:20.073Z,66.46
2022-09-15T04:48:48.912Z,67.05
2022-09-15T04:51:20.733Z,67.15
2022-09-15T04:53:48.064Z,67.68
2022-09-15T04:56:18.219Z,68.11
2022-09-15T04:58:47.665Z,67.81
2022-09-15T05:01:19.227Z,68.51
2022-09-15T05:03:47.555Z,68.15
2022-09-15T05:06:17.802Z,68.68
2022-09-15T05:08:49.536Z,68.58
2022-09-15T05:11:17.757Z,69.26
2022-09-15T05:13:44.674Z,68.86
2022-09-15T05:16:19.861Z,68.93
2022-09-15T05:18:48.535Z,68.74
2022-09-15T05:21:17.599Z,68.36
2022-09-15T05:23:44.671Z,67.75
2022-09-15T05:26:13.847Z,66.89
2022-09-15T05:28:40.856Z,67.09
2022-09-15T05:31:32.142Z,66.38
2022-09-15T05:34:00.889Z,66.09
2022-09-15T05:36:27.793Z,65.70
2022-09-15T05:38:56.751Z,65.81
2022-09-15T05:41:24.489Z,65.46
2022-09-15T05:43:51.454Z,65.46
2022-09-15T05:46:23.198Z,65.12
2022-09-15T05:48:50.187Z,65.39
2022-09-15T05:51:17.646Z,65.27
2022-09-15T05:53:44.689Z,65.42
2022-09-15T05:56:13.292Z,65.16
2022-09-15T05:58:41.089Z,65.26
2022-09-15T06:01:13.665Z,65.54
2022-09-15T06:03:40.784Z,65.11
2022-09-15T06:06:07.695Z,65.32
2022-09-15T06:08:36.592Z,65.37
2022-09-15T06:11:15.179Z,65.45
2022-09-15T06:13:42.527Z,65.84
2022-09-15T06:16:11.260Z,65.89
2022-09-15T06:18:39.099Z,66.88
2022-09-15T06:21:07.932Z,66.67
2022-09-15T06:23:35.047Z,67.31
2022-09-15T06:26:06.886Z,66.83
2022-09-15T06:28:34.118Z,66.71
2022-09-15T06:31:01.079Z,66.96
2022-09-15T06:33:28.057Z,66.61
2022-09-15T06:35:55.146Z,66.72
2022-09-15T06:38:22.087Z,66.31
2022-09-15T06:41:01.548Z,66.78
2022-09-15T06:43:31.106Z,67.17
2022-09-15T06:46:09.353Z,67.10
2022-09-15T06:48:37.030Z,66.93
2022-09-15T06:51:04.778Z,67.23
2022-09-15T06:53:32.900Z,67.09
2022-09-15T06:56:12.090Z,66.89
2022-09-15T06:58:40.530Z,67.13
2022-09-15T07:01:15.859Z,66.54
2022-09-15T07:03:44.094Z,66.19
2022-09-15T07:06:14.495Z,66.24
2022-09-15T07:08:41.867Z,66.34
2022-09-15T07:11:09.872Z,66.24
2022-09-15T07:13:36.892Z,66.10
2022-09-15T07:16:05.250Z,65.48
2022-09-15T07:18:32.627Z,65.39
2022-09-15T07:21:00.971Z,65.56
2022-09-15T07:23:27.878Z,64.95
2022-09-15T07:26:08.914Z,65.38
2022-09-15T07:28:36.166Z,64.92
2022-09-15T07:31:04.828Z,65.37
2022-09-15T07:33:31.993Z,65.33
2022-09-15T07:36:00.801Z,65.46
2022-09-15T07:38:27.743Z,65.15
2022-09-15T07:40:54.916Z,64.30
2022-09-15T07:43:21.792Z,63.74
2022-09-15T07:45:48.739Z,63.14
2022-09-15T07:48:16.269Z,62.47
2022-09-15T07:50:49.557Z,62.23
2022-09-15T07:53:17.705Z,62.25
2022-09-15T07:55:44.618Z,61.82
2022-09-15T07:58:11.527Z,61.84
2022-09-15T08:00:39.345Z,61.83
2022-09-15T08:03:09.914Z,61.77
2022-09-15T08:05:40.304Z,61.85
2022-09-15T08:08:09.439Z,62.27
2022-09-15T08:10:39.208Z,62.38
2022-09-15T08:13:06.338Z,61.90
2022-09-15T08:15:36.446Z,62.18
2022-09-15T08:18:03.828Z,62.34
2022-09-15T08:20:31.616Z,62.40
2022-09-15T08:22:58.947Z,62.69
2022-09-15T08:25:25.837Z,62.71
2022-09-15T08:27:54.246Z,62.44
2022-09-15T08:30:22.565Z,62.78
2022-09-15T08:32:49.962Z,62.84
2022-09-15T08:35:19.716Z,63.38
2022-09-15T08:37:49.516Z,63.06
2022-09-15T08:40:18.124Z,63.60
2022-09-15T08:42:45.951Z,63.00
2022-09-15T08:45:28.817Z,62.90
2022-09-15T08:47:58.833Z,63.23
2022-09-15T08:50:48.218Z,63.07
2022-09-15T08:53:35.047Z,63.10
2022-09-15T08:56:09.311Z,62.42
2022-09-15T08:58:37.760Z,61.92
2022-09-15T09:01:10.826Z,61.76
2022-09-15T09:03:48.668Z,60.86
2022-09-15T09:06:22.597Z,60.76
2022-09-15T09:09:09.354Z,59.55
2022-09-15T09:12:13.921Z,59.69
2022-09-15T09:15:12.314Z,59.81
2022-09-15T09:17:47.702Z,59.88
2022-09-15T09:20:37.327Z,59.51
2022-09-15T09:23:05.577Z,59.84
2022-09-15T09:25:32.548Z,59.41
2022-09-15T09:27:59.479Z,59.03
2022-09-15T09:30:27.783Z,59.58
2022-09-15T09:32:57.949Z,59.69
2022-09-15T09:35:51.914Z,59.55
2022-09-15T09:38:25.338Z,59.70
2022-09-15T09:40:52.502Z,59.70
2022-09-15T09:43:19.418Z,59.81
2022-09-15T09:45:47.395Z,59.08
2022-09-15T09:48:24.535Z,59.50
2022-09-15T09:50:51.642Z,59.51
2022-09-15T09:53:20.321Z,59.57
2022-09-15T09:55:48.043Z,59.74
2022-09-15T09:58:19.966Z,59.60
2022-09-15T10:00:50.545Z,59.49
2022-09-15T10:03:19.948Z,59.94
2022-09-15T10:06:05.953Z,59.50
2022-09-15T10:08:32.987Z,59.21
2022-09-15T10:11:06.835Z,59.06
2022-09-15T10:13:35.018Z,58.71
2022-09-15T10:16:02.698Z,58.22
2022-09-15T10:18:37.257Z,57.92
2022-09-15T10:21:06.134Z,58.13
2022-09-15T10:23:34.212Z,57.81
2022-09-15T10:26:17.632Z,57.69
2022-09-15T10:28:44.987Z,58.13
2022-09-15T10:31:16.957Z,58.44
2022-09-15T10:33:47.942Z,58.72
2022-09-15T10:36:22.816Z,58.57
2022-09-15T10:38:54.983Z,58.04
2022-09-15T10:41:32.301Z,57.92
2022-09-15T10:44:29.946Z,57.93
2022-09-15T10:47:18.446Z,56.98
2022-09-15T10:50:04.092Z,57.48
2022-09-15T10:52:42.059Z,57.86
2022-09-15T10:55:48.575Z,58.14
2022-09-15T10:58:25.504Z,59.74
2022-09-15T11:01:10.018Z,59.93
2022-09-15T11:03:49.756Z,60.24
2022-09-15T11:06:30.257Z,60.41
2022-09-15T11:09:18.995Z,59.73
2022-09-15T11:12:17.462Z,58.93
2022-09-15T11:14:51.749Z,59.29
2022-09-15T11:17:34.397Z,58.89
2022-09-15T11:20:10.202Z,59.26
2022-09-15T11:22:49.276Z,59.39
2022-09-15T11:25:21.235Z,59.85
2022-09-15T11:28:11.521Z,59.81
2022-09-15T11:30:47.023Z,60.14
2022-09-15T11:33:19.226Z,60.27
2022-09-15T11:36:10.049Z,60.82
2022-09-15T11:38:48.133Z,60.41
2022-09-15T11:41:20.388Z,60.56
2022-09-15T11:43:53.442Z,60.41
2022-09-15T11:47:04.837Z,59.72
2022-09-15T11:49:36.101Z,59.91
2022-09-15T11:52:13.527Z,59.69
2022-09-15T11:54:50.510Z,59.27
2022-09-15T11:57:24.916Z,59.27
2022-09-15T11:59:58.148Z,58.62
2022-09-15T12:02:42.870Z,58.53
2022-09-15T12:05:22.394Z,58.23
2022-09-15T12:08:09.214Z,57.60
2022-09-15T12:10:41.375Z,57.74
2022-09-15T12:13:13.317Z,57.55
2022-09-15T12:15:40.243Z,57.21
2022-09-15T12:18:37.398Z,57.32
2022-09-15T12:21:35.925Z,57.90
2022-09-15T12:24:23.656Z,58.00
2022-09-15T12:26:50.901Z,58.23
2022-09-15T12:29:26.830Z,58.79
2022-09-15T12:32:27.769Z,58.59
2022-09-15T12:34:59.034Z,58.03
2022-09-15T12:37:44.123Z,57.49
2022-09-15T12:40:39.420Z,57.17
2022-09-15T12:43:12.946Z,56.75
2022-09-15T12:45:40.902Z,56.60
2022-09-15T12:48:14.999Z,56.25
2022-09-15T12:50:43.231Z,56.83
2022-09-15T12:53:14.349Z,56.74
2022-09-15T12:55:52.561Z,56.15
2022-09-15T12:58:36.816Z,55.59
2022-09-15T13:01:19.424Z,55.33
2022-09-15T13:03:48.965Z,53.75
2022-09-15T13:06:23.551Z,52.41
2022-09-15T13:08:51.253Z,52.31
2022-09-15T13:11:31.836Z,53.00
2022-09-15T13:14:07.765Z,54.09
2022-09-15T13:16:40.738Z,54.76
2022-09-15T13:19:14.042Z,55.01
2022-09-15T13:21:42.781Z,55.70
2022-09-15T13:24:17.667Z,56.42
2022-09-15T13:26:44.968Z,56.63
2022-09-15T13:29:16.328Z,56.55
2022-09-15T13:31:49.808Z,56.84
2022-09-15T13:35:08.866Z,57.30
2022-09-15T13:38:08.381Z,57.18
2022-09-15T13:40:59.727Z,57.11
2022-09-15T13:43:41.191Z,56.37
2022-09-15T13:46:18.562Z,56.74
2022-09-15T13:49:16.247Z,56.66
2022-09-15T13:51:45.032Z,56.83
2022-09-15T13:54:19.259Z,56.34
2022-09-15T13:56:47.606Z,56.52
2022-09-15T13:59:24.204Z,57.87
2022-09-15T14:01:52.744Z,58.01
2022-09-15T14:04:25.177Z,58.36
2022-09-15T14:06:55.988Z,58.16
2022-09-15T14:09:28.251Z,58.15
2022-09-15T14:11:57.713Z,58.19
2022-09-15T14:14:27.714Z,58.38
2022-09-15T14:16:56.108Z,57.88
2022-09-15T14:19:36.044Z,57.65
2022-09-15T14:22:17.972Z,58.22
2022-09-15T14:24:47.781Z,57.87
2022-09-15T14:27:27.605Z,58.30
2022-09-15T14:29:55.494Z,58.24
2022-09-15T14:32:22.425Z,57.88
2022-09-15T14:34:49.563Z,57.89
2022-09-15T14:37:29.446Z,57.12
2022-09-15T14:39:58.673Z,57.10
2022-09-15T14:42:31.048Z,56.37
2022-09-15T14:48:16.256Z,55.37
2022-09-15T14:50:53.818Z,54.64
2022-09-15T14:53:21.117Z,55.02
2022-09-15T14:56:08.430Z,54.45
2022-09-15T14:58:52.171Z,53.82
2022-09-15T15:01:21.998Z,54.43
2022-09-15T15:03:54.881Z,53.56
2022-09-15T15:06:29.374Z,53.43
2022-09-15T15:09:00.758Z,54.03
2022-09-15T15:11:28.101Z,54.01
2022-09-15T15:13:55.238Z,54.46
2022-09-15T15:16:24.795Z,55.12
2022-09-15T15:18:52.205Z,55.20
2022-09-15T15:21:37.739Z,55.35
2022-09-15T15:24:10.200Z,55.18
2022-09-15T15:26:39.932Z,55.71
2022-09-15T15:29:08.359Z,55.70
2022-09-15T15:31:38.609Z,55.52
2022-09-15T15:34:06.893Z,55.85
2022-09-15T15:36:34.987Z,55.85
2022-09-15T15:39:08.191Z,55.80
2022-09-15T15:41:37.535Z,55.43
2022-09-15T15:44:09.341Z,55.06
2022-09-15T15:46:49.243Z,55.39
2022-09-15T15:49:17.589Z,55.51
2022-09-15T15:51:44.920Z,55.68
2022-09-15T15:54:11.891Z,55.54
2022-09-15T15:56:39.016Z,55.43
2022-09-15T15:59:06.325Z,55.59
2022-09-15T16:01:33.396Z,55.80
2022-09-15T16:04:00.412Z,56.33
2022-09-15T16:06:27.577Z,56.79
2022-09-15T16:08:54.562Z,56.94
2022-09-15T16:11:21.531Z,57.66
2022-09-15T16:13:48.443Z,57.12
2022-09-15T16:16:20.446Z,57.43
2022-09-15T16:18:47.987Z,57.96
2022-09-15T16:21:23.547Z,58.21
2022-09-15T16:23:50.623Z,58.02
2022-09-15T16:26:19.024Z,58.26
2022-09-15T16:28:46.783Z,58.62
2022-09-15T16:31:14.693Z,58.46
2022-09-15T16:33:42.810Z,58.94
2022-09-15T16:36:14.647Z,59.47
2022-09-15T16:38:42.204Z,59.85
2022-09-15T16:41:14.128Z,59.92
2022-09-15T16:43:41.062Z,59.79
2022-09-15T16:46:09.607Z,59.39
2022-09-15T16:48:36.908Z,58.99
2022-09-15T16:51:32.013Z,58.80
2022-09-15T16:53:52.207Z,58.24
2022-09-15T16:56:19.248Z,58.45
2022-09-15T16:58:46.850Z,58.21
2022-09-15T17:01:21.173Z,57.99
2022-09-15T17:03:51.237Z,58.23
2022-09-15T17:06:18.763Z,58.62
2022-09-15T17:08:46.388Z,58.62
2022-09-15T17:11:20.140Z,58.52
2022-09-15T17:13:50.179Z,58.59
2022-09-15T17:16:22.170Z,57.93
2022-09-15T17:18:49.414Z,58.11
2022-09-15T17:21:18.128Z,58.39
2022-09-15T17:23:47.401Z,58.37
2022-09-15T17:26:18.360Z,58.19
2022-09-15T17:28:47.871Z,58.62
2022-09-15T17:31:23.338Z,58.94
2022-09-15T17:33:50.981Z,58.96
2022-09-15T17:36:18.261Z,58.88
2022-09-15T17:38:47.816Z,59.10
2022-09-15T17:41:20.063Z,59.36
2022-09-15T17:43:47.724Z,59.26
2022-09-15T17:46:14.812Z,59.03
2022-09-15T17:48:41.947Z,59.80
2022-09-15T17:51:12.760Z,59.91
2022-09-15T17:53:40.428Z,60.61
2022-09-15T17:56:07.412Z,60.87
2022-09-15T17:58:34.526Z,61.46
2022-09-15T18:01:01.546Z,61.46
2022-09-15T18:03:35.062Z,61.40
2022-09-15T18:06:07.226Z,61.59
2022-09-15T18:08:35.972Z,61.56
2022-09-15T18:11:04.062Z,61.93
2022-09-15T18:13:31.323Z,62.26
2022-09-15T18:16:05.313Z,63.23
2022-09-15T18:18:32.401Z,63.86
2022-09-15T18:20:59.514Z,64.83
2022-09-15T18:23:28.826Z,65.12
2022-09-15T18:25:55.785Z,65.98
2022-09-15T18:28:22.766Z,66.32
2022-09-15T18:30:50.398Z,66.76
2022-09-15T18:33:24.605Z,66.69
2022-09-15T18:35:56.235Z,66.72
2022-09-15T18:38:23.613Z,66.45
2022-09-15T18:40:55.957Z,66.67
2022-09-15T18:43:25.278Z,67.58
2022-09-15T18:45:54.905Z,67.70
2022-09-15T18:48:21.862Z,67.69
2022-09-15T18:50:48.905Z,68.04
2022-09-15T18:53:15.995Z,68.69
2022-09-15T18:55:43.837Z,68.35
2022-09-15T18:58:13.621Z,69.11
2022-09-15T19:00:40.692Z,69.03
2022-09-15T19:03:09.661Z,69.21
2022-09-15T19:05:39.607Z,69.09
2022-09-15T19:08:08.533Z,69.07
2022-09-15T19:10:35.698Z,69.06
2022-09-15T19:13:02.580Z,69.18
2022-09-15T19:15:31.341Z,68.60
2022-09-15T19:17:58.400Z,68.94
2022-09-15T19:20:25.286Z,68.99
2022-09-15T19:22:52.218Z,68.93
2022-09-15T19:25:19.436Z,68.95
2022-09-15T19:27:47.974Z,69.18
2022-09-15T19:30:16.411Z,68.89
2022-09-15T19:32:47.745Z,69.24
2022-09-15T19:35:17.469Z,68.79
2022-09-15T19:37:44.518Z,69.05
2022-09-15T19:40:13.915Z,68.89
2022-09-15T19:42:42.090Z,68.66
2022-09-15T19:45:10.412Z,68.65
2022-09-15T19:47:40.874Z,69.18
2022-09-15T19:50:10.751Z,69.43
2022-09-15T19:52:37.681Z,69.03
2022-09-15T19:55:07.123Z,69.42
2022-09-15T19:57:34.400Z,69.21
2022-09-15T20:00:01.327Z,69.29
2022-09-15T20:02:29.201Z,69.57
2022-09-15T20:07:37.773Z,69.67
2022-09-15T20:10:05.036Z,69.44
2022-09-15T20:12:32.047Z,69.86
2022-09-15T20:14:59.272Z,69.86
2022-09-15T20:17:26.360Z,69.88
2022-09-15T20:19:53.271Z,70.42
2022-09-15T20:22:26.134Z,70.43
2022-09-15T20:24:53.090Z,70.71
2022-09-15T20:27:19.973Z,70.84
2022-09-15T20:29:48.244Z,71.13
2022-09-15T20:32:15.646Z,71.17
2022-09-15T20:34:42.838Z,71.49
2022-09-15T20:37:09.918Z,71.44
2022-09-15T20:39:36.954Z,71.79
2022-09-15T20:42:04.127Z,71.59
2022-09-15T20:44:31.102Z,71.54
2022-09-15T20:46:59.585Z,71.67
2022-09-15T20:49:26.756Z,71.80
2022-09-15T20:51:53.719Z,71.67
2022-09-15T20:54:20.708Z,71.66
2022-09-15T20:56:47.908Z,71.80
2022-09-15T20:59:17.219Z,71.83
2022-09-15T21:01:44.116Z,71.72
2022-09-15T21:04:11.285Z,71.64
2022-09-15T21:06:38.519Z,71.95
2022-09-15T21:09:05.758Z,71.99
2022-09-15T21:11:32.750Z,72.08
2022-09-15T21:13:59.643Z,71.94
2022-09-15T21:16:27.961Z,71.84
2022-09-15T21:18:56.318Z,72.02
2022-09-15T21:21:30.478Z,71.91
2022-09-15T21:24:04.126Z,72.01
2022-09-15T21:27:00.422Z,71.91
2022-09-15T21:29:27.928Z,71.69
2022-09-15T21:31:58.181Z,71.88
2022-09-15T21:34:25.294Z,72.16
2022-09-15T21:36:53.677Z,71.97
2022-09-15T21:39:21.429Z,72.16
2022-09-15T21:41:48.437Z,72.27
2022-09-15T21:44:15.961Z,71.59
2022-09-15T21:46:44.999Z,72.01
2022-09-15T21:49:12.190Z,71.94
2022-09-15T21:51:39.770Z,72.17
2022-09-15T21:54:06.751Z,72.36
2022-09-15T21:56:33.822Z,72.60
2022-09-15T21:59:02.886Z,72.50
2022-09-15T22:01:31.470Z,73.04
2022-09-15T22:04:03.497Z,72.93
2022-09-15T22:06:35.298Z,73.03
2022-09-15T22:09:08.146Z,73.36
2022-09-15T22:11:35.427Z,73.60
2022-09-15T22:14:03.596Z,73.99
2022-09-15T22:16:30.657Z,73.54
2022-09-15T22:18:57.854Z,73.70
2022-09-15T22:21:29.820Z,74.07
2022-09-15T22:23:57.897Z,73.74
2022-09-15T22:26:26.871Z,73.66
2022-09-15T22:28:54.052Z,73.79
2022-09-15T22:31:22.092Z,73.62
2022-09-15T22:33:49.150Z,74.12
2022-09-15T22:36:18.538Z,73.67
2022-09-15T22:38:48.064Z,74.04
2022-09-15T22:41:17.712Z,74.13
2022-09-15T22:43:46.053Z,74.39
2022-09-15T22:46:13.070Z,74.05
2022-09-15T22:48:43.508Z,74.33
2022-09-15T22:51:11.270Z,74.08
2022-09-15T22:53:38.431Z,74.10
2022-09-15T22:56:06.679Z,74.31
2022-09-15T22:58:34.432Z,74.34
2022-09-15T23:01:09.983Z,74.23
2022-09-15T23:03:37.827Z,74.51
2022-09-15T23:06:05.629Z,74.43
2022-09-15T23:08:32.849Z,74.55
2022-09-15T23:11:08.612Z,74.58
2022-09-15T23:13:35.504Z,74.84
2022-09-15T23:16:02.606Z,74.64
2022-09-15T23:18:30.095Z,74.35
2022-09-15T23:21:01.323Z,74.81
2022-09-15T23:23:28.978Z,74.77
2022-09-15T23:25:56.244Z,74.53
2022-09-15T23:28:23.492Z,74.57
2022-09-15T23:30:54.574Z,74.68
2022-09-15T23:33:22.435Z,75.05
2022-09-15T23:35:49.832Z,75.22
2022-09-15T23:38:20.571Z,75.03
2022-09-15T23:40:48.824Z,74.85
2022-09-15T23:43:16.908Z,75.24
2022-09-15T23:45:44.538Z,75.03
2022-09-15T23:48:11.747Z,75.29
2022-09-15T23:50:38.980Z,75.22
2022-09-15T23:53:06.072Z,75.11
2022-09-15T23:55:33.047Z,75.84
2022-09-15T23:58:00.129Z,75.49
